Aviation Digital Data Service (ADDS)

Output produced by METARs form (2354 UTC 18 August 2019)
found at http://www.aviationweather.gov/metar/data/
 
Forecast for: KLEX (LEXINGTON , KY, US)
Text: KLEX 182321Z 1900/1924 22007KT P6SM BKN250
Forecast period: 0000 to 0400 UTC 19 August 2019
Forecast type: FROM: standard forecast or significant change
Winds: from the SW (220 degrees) at 8 MPH (7 knots; 3.6 m/s)
Visibility: 6 or more miles 10+ km)
Ceiling: 25000 feet AGL
Clouds: broken clouds at 25000 feet AGL
Weather: no significant weather forecast for this period
Text: FM190400 VRB04KT P6SM SCT150 BKN250
Forecast period: 0400 to 1500 UTC 19 August 2019
Forecast type: FROM: standard forecast or significant change
Winds: variable direction winds at 5 MPH (4 knots; 2.1 m/s)
Visibility: 6 or more miles 10+ km)
Ceiling: 25000 feet AGL
Clouds: scattered clouds at 15000 feet AGL
broken clouds at 25000 feet AGL
Weather: no significant weather forecast for this period
Text: FM191500 20008KT P6SM SCT050 SCT250
Forecast period: 1500 UTC 19 August 2019 to 0000 UTC 20 August 2019
Forecast type: FROM: standard forecast or significant change
Winds: from the SSW (200 degrees) at 9 MPH (8 knots; 4.1 m/s)
Visibility: 6 or more miles 10+ km)
Ceiling: at least 12,000 feet AGL
Clouds: scattered clouds at 5000 feet AGL
scattered clouds at 25000 feet AGL
Weather: no significant weather forecast for this period